Time;durP1;ratioP1;P1;durP2;ratioP2;P2;SDS_P1;SDS_P2;PMS_P1;PMS_P2;Temp;Humidity;BMP_temperature;BMP_pressure;BME280_temperature;BME280_humidity;BME280_pressure;Samples;Min_cycle;Max_cycle;Signal;HPM_P1;HPM_P2
2022/12/22 03:28:02;;;;;;;;;;;;;;;27.97;26.96;101053.16;5056831;28;1068;-22
2022/12/22 03:30:27;;;;;;;;;;;;;;;28.39;26.25;101055.53;5056535;28;1036;-23
2022/12/22 03:32:52;;;;;;;;;;;;;;;28.66;25.87;101052.38;5058825;28;1024;-27
2022/12/22 03:35:18;;;;;;;;;;;;;;;29.32;24.78;101056.16;5076753;28;1099;-23
2022/12/22 03:37:43;;;;;;;;;;;;;;;28.53;25.77;101058.44;5061395;28;1894;-24
2022/12/22 03:40:08;;;;;;;;;;;;;;;28.55;25.82;101054.50;5056495;28;1137;-23
2022/12/22 03:48:02;;;;;;;;;;;;;;;29.32;24.88;101056.16;5069838;28;1125;-22
2022/12/22 03:50:27;;;;;;;;;;;;;;;29.38;24.40;101058.09;5056584;28;876;-21
2022/12/22 03:52:52;;;;;;;;;;;;;;;27.95;26.69;101057.91;5070409;28;1094;-25
2022/12/22 03:55:17;;;;;;;;;;;;;;;27.93;26.90;101053.69;5067714;28;1120;-22
2022/12/22 03:57:43;;;;;;;;;;;;;;;28.22;26.63;101050.25;5070759;28;1963;-21
2022/12/22 04:00:08;;;;;;;;;;;;;;;28.55;26.15;101050.97;5066391;28;1097;-23
2022/12/22 04:02:33;;;;;;;;;;;;;;;28.76;24.12;101052.91;5074829;28;1163;-21
2022/12/22 04:04:59;;;;;;;;;;;;;;;28.53;24.83;101048.44;5075722;28;1159;-23
2022/12/22 04:07:24;;;;;;;;;;;;;;;28.09;24.99;101050.03;5074168;28;1043;-21
2022/12/22 04:15:17;;;;;;;;;;;;;;;28.35;24.29;101056.91;5066090;28;2175;-20
2022/12/22 04:17:42;;;;;;;;;;;;;;;28.34;24.28;101057.94;5075603;28;1913;-20
2022/12/22 04:20:08;;;;;;;;;;;;;;;28.52;23.99;101054.88;5075134;28;1148;-21
2022/12/22 04:22:33;;;;;;;;;;;;;;;28.43;23.95;101046.00;5074917;28;1269;-21
2022/12/22 04:24:58;;;;;;;;;;;;;;;28.22;24.03;101049.41;5074063;28;1020;-21
2022/12/22 04:27:23;;;;;;;;;;;;;;;28.22;24.02;101043.97;5074532;28;1171;-21
2022/12/22 04:29:49;;;;;;;;;;;;;;;28.22;24.14;101052.94;5074404;28;996;-21
2022/12/22 04:32:14;;;;;;;;;;;;;;;28.36;23.79;101045.09;5075040;28;1039;-21
2022/12/22 04:34:39;;;;;;;;;;;;;;;28.46;23.69;101053.75;5075188;28;1056;-21
2022/12/22 04:37:04;;;;;;;;;;;;;;;28.58;22.84;101056.84;5075640;28;1889;-21
2022/12/22 04:39:30;;;;;;;;;;;;;;;28.67;22.93;101060.31;5075647;28;1143;-21
2022/12/22 04:41:55;;;;;;;;;;;;;;;28.10;23.68;101046.28;5075187;28;1068;-21
2022/12/22 04:44:20;;;;;;;;;;;;;;;27.94;24.07;101041.88;5075432;28;2241;-22
2022/12/22 04:46:46;;;;;;;;;;;;;;;27.69;24.52;101040.19;5075328;28;1119;-23
2022/12/22 04:49:11;;;;;;;;;;;;;;;27.60;23.63;101042.06;5075019;28;1095;-24
2022/12/22 04:51:36;;;;;;;;;;;;;;;27.47;22.15;101045.38;5075282;28;1135;-24
2022/12/22 04:54:02;;;;;;;;;;;;;;;27.45;21.24;101038.44;5075509;28;1107;-21
2022/12/22 04:56:27;;;;;;;;;;;;;;;28.02;21.21;101041.78;5075158;28;1902;-12
2022/12/22 04:58:52;;;;;;;;;;;;;;;28.48;21.24;101042.72;5075399;28;1016;-12
2022/12/22 05:01:18;;;;;;;;;;;;;;;28.56;21.34;101041.84;5074950;28;1159;-13
2022/12/22 05:03:43;;;;;;;;;;;;;;;26.71;21.47;101029.66;5075391;28;1020;-13
2022/12/22 05:06:08;;;;;;;;;;;;;;;26.47;20.35;101042.19;5075217;28;1091;-13
2022/12/22 05:08:34;;;;;;;;;;;;;;;26.47;19.24;101042.19;5075317;28;1098;-13
2022/12/22 05:10:59;;;;;;;;;;;;;;;26.32;18.80;101042.84;5075387;28;1099;-13
2022/12/22 05:13:24;;;;;;;;;;;;;;;26.29;18.33;101048.59;5072525;28;1769;-12
2022/12/22 05:15:50;;;;;;;;;;;;;;;27.21;17.64;101035.72;5075771;28;1270;-12
2022/12/22 05:18:15;;;;;;;;;;;;;;;27.83;17.23;101048.53;5079089;28;2036;-12
2022/12/22 05:20:40;;;;;;;;;;;;;;;27.97;17.26;101046.91;5078066;28;1123;-12
2022/12/22 05:23:05;;;;;;;;;;;;;;;28.05;17.17;101043.28;5078556;28;1096;-12
2022/12/22 05:25:31;;;;;;;;;;;;;;;28.30;16.95;101052.03;5078272;28;1084;-12
2022/12/22 05:27:56;;;;;;;;;;;;;;;28.59;16.62;101057.69;5078415;28;1071;-12
2022/12/22 05:30:21;;;;;;;;;;;;;;;28.14;15.74;101055.72;5065376;28;1035;-12
2022/12/22 05:32:47;;;;;;;;;;;;;;;27.86;16.75;101056.31;5078478;28;1194;-12
2022/12/22 05:35:12;;;;;;;;;;;;;;;27.98;16.94;101052.13;5078406;28;1503;-12
2022/12/22 05:37:37;;;;;;;;;;;;;;;28.30;17.01;101051.19;5078134;28;1901;-12
2022/12/22 05:40:03;;;;;;;;;;;;;;;28.24;17.68;101055.47;5078216;28;1003;-12
2022/12/22 05:42:38;;;;;;;;;;;;;;;28.07;18.39;101057.47;5078888;28;1072;-12
2022/12/22 05:45:16;;;;;;;;;;;;;;;27.90;19.44;101054.91;5067283;28;2468;-12
2022/12/22 05:47:42;;;;;;;;;;;;;;;27.85;19.58;101057.31;5078945;28;1079;-12
2022/12/22 05:50:07;;;;;;;;;;;;;;;27.55;19.83;101030.97;5071360;28;878;-12
2022/12/22 05:52:33;;;;;;;;;;;;;;;27.57;20.39;101063.22;5071673;28;1000;-12
2022/12/22 05:54:58;;;;;;;;;;;;;;;27.47;20.52;101063.44;5078294;28;1191;-12
2022/12/22 05:57:23;;;;;;;;;;;;;;;27.35;20.89;101073.78;5078601;28;1910;-12
2022/12/22 05:59:49;;;;;;;;;;;;;;;27.07;21.42;101064.31;5078002;28;1035;-11
2022/12/22 06:02:14;;;;;;;;;;;;;;;26.61;22.16;101070.34;5077900;28;1127;-12
2022/12/22 06:04:39;;;;;;;;;;;;;;;26.58;22.20;101059.84;5078287;28;1075;-12
2022/12/22 06:07:04;;;;;;;;;;;;;;;27.04;21.28;101075.47;5077648;28;1147;-12
2022/12/22 06:09:30;;;;;;;;;;;;;;;27.19;21.71;101070.19;5078221;28;1039;-12
2022/12/22 06:11:55;;;;;;;;;;;;;;;26.59;22.43;101078.56;5078056;28;1087;-12
2022/12/22 06:14:20;;;;;;;;;;;;;;;26.47;22.87;101077.25;5076981;28;2593;-12
2022/12/22 06:16:45;;;;;;;;;;;;;;;26.07;23.34;101082.47;5077372;28;1989;-12
2022/12/22 06:19:11;;;;;;;;;;;;;;;26.80;22.60;101079.88;5077752;28;1110;-12
2022/12/22 06:21:36;;;;;;;;;;;;;;;27.14;22.42;101077.97;5077809;28;1104;-12
2022/12/22 06:24:03;;;;;;;;;;;;;;;27.20;22.21;101082.66;5077638;28;1092;-12
2022/12/22 06:26:28;;;;;;;;;;;;;;;27.04;22.69;101086.28;5076879;28;1125;-12
2022/12/22 06:28:53;;;;;;;;;;;;;;;28.10;21.32;101084.16;5077752;28;1024;-12
2022/12/22 06:31:19;;;;;;;;;;;;;;;27.76;21.53;101080.84;5077496;28;1056;-12
2022/12/22 06:33:44;;;;;;;;;;;;;;;27.69;21.70;101090.69;5077543;28;1020;-12
2022/12/22 06:36:10;;;;;;;;;;;;;;;27.85;22.13;101087.88;5076715;28;1897;-12
2022/12/22 06:38:35;;;;;;;;;;;;;;;28.43;21.15;101083.03;5076940;28;1031;-12
2022/12/22 06:41:00;;;;;;;;;;;;;;;27.94;21.70;101085.97;5077756;28;1099;-12
2022/12/22 06:43:26;;;;;;;;;;;;;;;27.73;22.00;101087.47;5077040;28;1851;-12
2022/12/22 06:45:51;;;;;;;;;;;;;;;27.84;22.25;101088.06;5076705;28;1039;-12
2022/12/22 06:48:16;;;;;;;;;;;;;;;28.22;21.78;101084.56;5077409;28;1143;-12
2022/12/22 06:50:42;;;;;;;;;;;;;;;28.28;21.55;101089.22;5076868;28;1198;-12
2022/12/22 06:53:07;;;;;;;;;;;;;;;28.00;22.06;101087.09;5077221;28;1035;-12
2022/12/22 06:55:32;;;;;;;;;;;;;;;27.95;21.98;101089.50;5076927;28;924;-12
2022/12/22 06:57:58;;;;;;;;;;;;;;;28.02;22.06;101092.31;5076315;28;1947;-12
2022/12/22 07:00:23;;;;;;;;;;;;;;;28.03;21.86;101091.31;5076811;28;1107;-12
2022/12/22 07:02:49;;;;;;;;;;;;;;;27.72;23.13;101088.50;5076630;28;1016;-12
2022/12/22 07:05:14;;;;;;;;;;;;;;;27.61;23.57;101091.56;5076783;28;1079;-12
2022/12/22 07:07:39;;;;;;;;;;;;;;;27.37;23.96;101096.94;5077224;28;1150;-11
2022/12/22 07:10:05;;;;;;;;;;;;;;;27.65;23.21;101094.72;5076470;28;1051;-12
2022/12/22 07:12:30;;;;;;;;;;;;;;;27.58;22.83;101097.31;5076761;28;1076;-12
2022/12/22 07:14:55;;;;;;;;;;;;;;;25.48;23.91;100856.09;5076354;28;2089;-12
2022/12/22 07:17:21;;;;;;;;;;;;;;;28.11;23.07;101096.66;5076775;28;1906;-12
2022/12/22 07:19:46;;;;;;;;;;;;;;;27.69;23.04;101096.97;5076199;28;1110;-12
2022/12/22 07:22:11;;;;;;;;;;;;;;;27.48;23.45;101100.22;5069907;28;1062;-12
2022/12/22 07:24:37;;;;;;;;;;;;;;;26.87;24.38;101093.53;5069846;28;1093;-12
2022/12/22 07:27:02;;;;;;;;;;;;;;;27.82;23.37;101098.22;5076376;28;872;-11
2022/12/22 07:29:27;;;;;;;;;;;;;;;27.82;22.70;101098.22;5076323;28;1087;-12
2022/12/22 07:31:52;;;;;;;;;;;;;;;27.58;23.15;101110.81;5076639;28;1042;-12
2022/12/22 07:34:18;;;;;;;;;;;;;;;26.13;25.63;101117.69;5076593;28;1108;-12
2022/12/22 07:36:43;;;;;;;;;;;;;;;27.38;23.95;101103.16;5075610;28;1953;-12
2022/12/22 07:39:08;;;;;;;;;;;;;;;28.05;22.53;101108.19;5075346;28;1078;-12
2022/12/22 07:44:17;;;;;;;;;;;;;;;27.13;23.60;101112.22;5068042;28;2283;-12
2022/12/22 07:46:43;;;;;;;;;;;;;;;27.71;23.32;101105.72;5076172;28;1055;-12
2022/12/22 07:51:54;;;;;;;;;;;;;;;28.13;22.67;101115.41;5060619;28;890;-12
2022/12/22 07:54:19;;;;;;;;;;;;;;;27.17;23.90;101114.56;5075507;28;1148;-12
2022/12/22 07:56:45;;;;;;;;;;;;;;;26.84;24.71;101108.19;5075685;28;1894;-12
2022/12/22 07:59:10;;;;;;;;;;;;;;;27.89;23.18;101112.72;5075221;28;1484;-12
2022/12/22 08:01:35;;;;;;;;;;;;;;;27.99;23.09;101113.28;5075903;28;1067;-12
2022/12/22 08:04:01;;;;;;;;;;;;;;;27.96;23.04;101107.44;5074697;28;1035;-12
2022/12/22 08:06:26;;;;;;;;;;;;;;;27.98;22.94;101108.06;5075823;28;1047;-12
2022/12/22 08:08:51;;;;;;;;;;;;;;;27.94;22.70;101104.91;5075721;28;1072;-12
2022/12/22 08:11:17;;;;;;;;;;;;;;;27.79;23.02;101102.13;5076058;28;1124;-12
2022/12/22 08:13:42;;;;;;;;;;;;;;;27.85;23.40;101097.84;5075555;28;2377;-12
2022/12/22 08:16:09;;;;;;;;;;;;;;;27.87;23.40;101093.13;5075337;28;1918;-12
2022/12/22 08:18:34;;;;;;;;;;;;;;;28.14;23.04;101104.41;5075213;28;1140;-12
2022/12/22 08:20:59;;;;;;;;;;;;;;;27.59;23.64;101090.91;5075385;28;1067;-12
2022/12/22 08:23:24;;;;;;;;;;;;;;;27.89;23.64;101090.22;5075641;28;1044;-12
2022/12/22 08:25:51;;;;;;;;;;;;;;;27.86;23.12;101081.44;5075256;28;1514;-12
2022/12/22 08:28:16;;;;;;;;;;;;;;;27.85;23.42;101074.38;5056978;28;1115;-12
2022/12/22 08:30:42;;;;;;;;;;;;;;;27.77;23.68;101068.19;5075520;28;1099;-12
2022/12/22 08:33:07;;;;;;;;;;;;;;;27.77;23.46;101063.63;5074712;28;1106;-12
2022/12/22 08:35:33;;;;;;;;;;;;;;;27.79;23.27;101066.13;5075508;28;988;-12
2022/12/22 08:37:58;;;;;;;;;;;;;;;27.78;23.78;101068.00;5075105;28;1906;-12
2022/12/22 08:40:25;;;;;;;;;;;;;;;27.84;23.72;101059.16;5057373;28;893;-12
2022/12/22 08:42:51;;;;;;;;;;;;;;;27.77;23.82;101060.06;5057114;28;1044;-12
2022/12/22 08:45:16;;;;;;;;;;;;;;;27.66;23.74;101062.13;5049334;28;2547;-12
2022/12/22 08:47:42;;;;;;;;;;;;;;;27.67;24.04;101054.88;5075665;28;1173;-12
2022/12/22 08:50:07;;;;;;;;;;;;;;;27.65;23.75;101049.63;5078207;28;1094;-12
2022/12/22 08:52:32;;;;;;;;;;;;;;;27.54;23.98;101045.50;5079476;28;1303;-13
2022/12/22 08:54:58;;;;;;;;;;;;;;;27.53;24.36;101046.50;5079473;28;968;-12
2022/12/22 08:57:23;;;;;;;;;;;;;;;27.70;24.00;101043.72;5078772;28;1955;-12
2022/12/22 08:59:48;;;;;;;;;;;;;;;27.54;24.31;101044.66;5078561;28;1007;-12
2022/12/22 09:02:14;;;;;;;;;;;;;;;27.36;24.48;101043.91;5079213;28;1096;-12
2022/12/22 09:04:39;;;;;;;;;;;;;;;27.28;24.86;101040.44;5079118;28;936;-12
2022/12/22 09:07:04;;;;;;;;;;;;;;;27.34;26.48;101037.00;5079525;28;1191;-12
2022/12/22 09:09:30;;;;;;;;;;;;;;;27.42;24.81;101036.97;5079151;28;1094;-12
2022/12/22 09:11:55;;;;;;;;;;;;;;;27.36;24.65;101029.56;5078790;28;1040;-12
2022/12/22 09:14:21;;;;;;;;;;;;;;;27.32;24.74;101030.94;5077977;28;2517;-12
2022/12/22 09:16:46;;;;;;;;;;;;;;;27.30;24.53;101027.56;5064933;28;1965;-12
2022/12/22 09:19:11;;;;;;;;;;;;;;;27.23;24.80;101024.72;5078617;28;1028;-12
2022/12/22 09:21:36;;;;;;;;;;;;;;;27.29;24.78;101017.78;5079065;28;1080;-12
2022/12/22 09:24:03;;;;;;;;;;;;;;;27.21;24.91;101016.00;5078885;28;1091;-12
2022/12/22 09:26:28;;;;;;;;;;;;;;;27.30;24.96;101017.63;5075774;28;1218;-12
2022/12/22 09:28:54;;;;;;;;;;;;;;;27.19;24.04;101013.47;5067811;28;946;-12
2022/12/22 09:31:19;;;;;;;;;;;;;;;26.88;24.70;101006.97;5078501;28;1140;-12
2022/12/22 09:33:45;;;;;;;;;;;;;;;26.93;24.75;101008.31;5078782;28;1055;-12
2022/12/22 09:36:11;;;;;;;;;;;;;;;26.97;24.68;101006.94;5078447;28;1902;-12
2022/12/22 09:38:37;;;;;;;;;;;;;;;26.97;24.45;101001.56;5060807;28;1023;-12
2022/12/22 09:41:06;;;;;;;;;;;;;;;26.87;24.35;100977.47;5078405;28;949;-11
2022/12/22 09:43:31;;;;;;;;;;;;;;;26.56;25.04;100995.28;5074828;28;1872;-12
2022/12/22 09:45:57;;;;;;;;;;;;;;;26.64;25.17;100989.84;5074476;28;1074;-13
2022/12/22 09:48:22;;;;;;;;;;;;;;;26.89;24.72;100978.97;5078271;28;1064;-12
2022/12/22 09:50:47;;;;;;;;;;;;;;;27.03;24.44;100984.66;5077731;28;1117;-12
2022/12/22 09:53:18;;;;;;;;;;;;;;;26.72;24.99;100989.00;5078597;28;870;-12
2022/12/22 09:55:44;;;;;;;;;;;;;;;26.61;25.16;100987.50;5060584;28;1051;-12
2022/12/22 09:58:14;;;;;;;;;;;;;;;26.88;24.78;100982.69;5060451;28;1968;-12
2022/12/22 10:00:39;;;;;;;;;;;;;;;26.76;24.62;100979.53;5059120;28;1079;-11
2022/12/22 10:03:08;;;;;;;;;;;;;;;26.47;25.35;100969.34;5078244;28;1059;-12
2022/12/22 10:05:42;;;;;;;;;;;;;;;26.70;24.67;100977.53;5060102;28;941;-12
2022/12/22 10:08:11;;;;;;;;;;;;;;;26.74;25.05;100959.16;5077703;28;1062;-12
2022/12/22 10:10:36;;;;;;;;;;;;;;;26.70;24.75;100968.59;5077452;28;1095;-12
2022/12/22 10:13:02;;;;;;;;;;;;;;;26.49;25.18;100968.16;5078374;28;1170;-12
2022/12/22 10:15:38;;;;;;;;;;;;;;;26.52;25.04;100965.13;5077447;28;2555;-12
2022/12/22 10:18:08;;;;;;;;;;;;;;;26.79;24.83;100959.47;5078027;28;1918;-12
2022/12/22 10:20:33;;;;;;;;;;;;;;;26.75;24.67;100955.41;5065333;28;1008;-12
2022/12/22 10:23:00;;;;;;;;;;;;;;;26.17;25.57;100962.63;5077783;28;1130;-12
2022/12/22 10:25:30;;;;;;;;;;;;;;;26.32;23.47;100955.72;5064266;28;1084;-12
2022/12/22 10:27:56;;;;;;;;;;;;;;;26.26;22.03;100944.59;5077309;28;1054;-12
2022/12/22 10:30:22;;;;;;;;;;;;;;;26.16;21.85;100938.53;5077522;28;1031;-12
2022/12/22 10:33:04;;;;;;;;;;;;;;;26.22;22.11;100937.03;5077490;28;1210;-12
2022/12/22 10:35:48;;;;;;;;;;;;;;;26.04;22.62;100938.09;5077409;28;1082;-12
2022/12/22 10:38:17;;;;;;;;;;;;;;;26.32;22.69;100934.97;5059096;28;1926;-12
2022/12/22 10:40:42;;;;;;;;;;;;;;;26.37;23.27;100926.41;5077087;28;995;-12
2022/12/22 10:43:08;;;;;;;;;;;;;;;26.47;23.28;100921.66;5058956;28;2280;-12
2022/12/22 10:45:33;;;;;;;;;;;;;;;26.57;23.21;100912.50;5051475;28;1123;-12
2022/12/22 10:47:58;;;;;;;;;;;;;;;26.56;23.53;100916.22;5059787;28;1119;-12
2022/12/22 10:50:24;;;;;;;;;;;;;;;26.34;23.88;100911.38;5059531;28;1135;-12
2022/12/22 10:52:53;;;;;;;;;;;;;;;26.53;23.83;100906.59;5075974;28;1079;-12
2022/12/22 10:55:25;;;;;;;;;;;;;;;26.65;23.71;100905.22;5076806;28;1008;-12
2022/12/22 10:57:50;;;;;;;;;;;;;;;26.76;23.61;100900.41;5058863;28;1906;-12
2022/12/22 11:00:26;;;;;;;;;;;;;;;26.67;23.81;100894.25;5077347;28;1007;-12
2022/12/22 11:02:52;;;;;;;;;;;;;;;26.81;23.62;100900.72;5076317;28;1027;-12
2022/12/22 11:05:17;;;;;;;;;;;;;;;26.74;23.62;100895.19;5075919;28;1231;-12
2022/12/22 11:07:43;;;;;;;;;;;;;;;26.87;23.95;100899.19;5077269;28;1064;-12
2022/12/22 11:10:15;;;;;;;;;;;;;;;26.76;23.77;100885.06;5076715;28;1198;-12
2022/12/22 11:12:55;;;;;;;;;;;;;;;26.78;24.09;100890.28;5076686;28;1147;-12
2022/12/22 11:15:40;;;;;;;;;;;;;;;26.58;24.25;100887.19;5058426;28;2535;-12
2022/12/22 11:18:12;;;;;;;;;;;;;;;26.69;24.12;100885.97;5057262;28;1922;-12
2022/12/22 11:20:37;;;;;;;;;;;;;;;26.81;24.27;100881.03;5076975;28;996;-12
2022/12/22 11:23:07;;;;;;;;;;;;;;;26.75;24.17;100878.00;5076401;28;1032;-12
2022/12/22 11:25:51;;;;;;;;;;;;;;;26.82;24.38;100880.84;5058830;28;1009;-12
2022/12/22 11:28:35;;;;;;;;;;;;;;;26.21;25.15;100873.34;5073323;28;1126;-12
2022/12/22 11:31:22;;;;;;;;;;;;;;;26.50;24.63;100874.59;5051419;28;1064;-12
2022/12/22 11:34:06;;;;;;;;;;;;;;;26.72;24.55;100866.72;5058337;28;1036;-12
2022/12/22 11:36:49;;;;;;;;;;;;;;;26.77;24.58;100867.03;5076222;28;1951;-12
2022/12/22 11:39:16;;;;;;;;;;;;;;;26.66;24.43;100870.97;5076641;28;1103;-12
2022/12/22 11:41:41;;;;;;;;;;;;;;;26.63;24.69;100857.81;5076492;28;957;-12
2022/12/22 11:44:07;;;;;;;;;;;;;;;26.85;24.43;100858.03;5075691;28;2429;-12
2022/12/22 11:46:52;;;;;;;;;;;;;;;26.78;24.57;100852.50;5076316;28;999;-12
2022/12/22 11:49:20;;;;;;;;;;;;;;;26.73;24.76;100857.59;5057951;28;1235;-12
2022/12/22 11:51:45;;;;;;;;;;;;;;;26.73;24.64;100847.66;5076341;28;1016;-12
2022/12/22 11:54:20;;;;;;;;;;;;;;;26.70;24.98;100848.00;5075343;28;873;-12
2022/12/22 11:57:06;;;;;;;;;;;;;;;26.64;24.73;100846.84;5075841;28;1906;-12
2022/12/22 11:59:35;;;;;;;;;;;;;;;26.55;24.94;100844.38;5053140;28;1413;-12
2022/12/22 12:02:18;;;;;;;;;;;;;;;26.78;25.12;100841.72;5075784;28;1024;-12
2022/12/22 12:05:10;;;;;;;;;;;;;;;26.86;24.59;100836.25;5075866;28;1135;-12
2022/12/22 12:07:44;;;;;;;;;;;;;;;26.78;24.90;100834.47;5059675;28;1248;-12
2022/12/22 12:10:30;;;;;;;;;;;;;;;26.69;25.21;100835.56;5075744;28;1130;-12
2022/12/22 12:13:02;;;;;;;;;;;;;;;26.56;25.33;100838.81;5058118;28;1045;-12
2022/12/22 12:15:27;;;;;;;;;;;;;;;26.56;24.82;100836.09;5075074;28;2742;-12
2022/12/22 12:17:58;;;;;;;;;;;;;;;26.75;25.28;100832.13;5075230;28;1971;-12
2022/12/22 12:20:33;;;;;;;;;;;;;;;26.76;25.27;100830.25;5075431;28;1111;-12
2022/12/22 12:23:06;;;;;;;;;;;;;;;26.74;24.86;100827.72;5075731;28;1051;-12
2022/12/22 12:25:36;;;;;;;;;;;;;;;26.82;25.05;100834.97;5075621;28;1007;-12
2022/12/22 12:28:19;;;;;;;;;;;;;;;26.55;25.74;100826.34;5057330;28;1040;-12
2022/12/22 12:30:49;;;;;;;;;;;;;;;26.76;25.54;100831.09;5057575;28;925;-12
2022/12/22 12:33:16;;;;;;;;;;;;;;;26.72;25.30;100831.66;5057274;28;1190;-12
2022/12/22 12:35:44;;;;;;;;;;;;;;;26.76;24.99;100831.09;5075779;28;1076;-12
2022/12/22 12:38:12;;;;;;;;;;;;;;;26.84;25.19;100837.47;5057171;28;1884;-12
2022/12/22 12:40:51;;;;;;;;;;;;;;;26.68;25.41;100836.56;5075236;28;1178;-12
2022/12/22 12:43:16;;;;;;;;;;;;;;;26.85;25.03;100834.59;5062918;28;2372;-12
2022/12/22 12:45:42;;;;;;;;;;;;;;;26.89;24.96;100837.78;5057385;28;1001;-12
2022/12/22 12:48:19;;;;;;;;;;;;;;;26.70;25.38;100815.63;5075343;28;1075;-12
2022/12/22 12:51:05;;;;;;;;;;;;;;;26.78;25.09;100828.22;5074791;28;1070;-12
2022/12/22 12:53:30;;;;;;;;;;;;;;;25.85;26.86;100832.34;5056603;28;1369;-12
2022/12/22 12:56:05;;;;;;;;;;;;;;;26.51;25.51;100833.09;5075457;28;1088;-12
2022/12/22 12:58:34;;;;;;;;;;;;;;;26.79;25.32;100829.94;5057439;28;1906;-12
2022/12/22 13:00:59;;;;;;;;;;;;;;;26.75;25.32;100824.03;5075286;28;1149;-12
2022/12/22 13:03:27;;;;;;;;;;;;;;;26.73;25.46;100830.63;5075147;28;1278;-12
2022/12/22 13:05:56;;;;;;;;;;;;;;;26.59;25.41;100824.97;5067422;28;951;-12
2022/12/22 13:08:24;;;;;;;;;;;;;;;26.80;25.33;100828.88;5070362;28;1140;-12
2022/12/22 13:10:53;;;;;;;;;;;;;;;26.65;25.53;100809.94;5075095;28;1103;-12
2022/12/22 13:13:24;;;;;;;;;;;;;;;26.58;25.52;100807.09;5073396;28;1852;-12
2022/12/22 13:15:58;;;;;;;;;;;;;;;26.37;25.92;100832.84;5064438;28;1071;-12
2022/12/22 13:18:24;;;;;;;;;;;;;;;26.08;26.29;100825.34;5056590;28;1965;-12
2022/12/22 13:21:08;;;;;;;;;;;;;;;26.47;25.83;100827.25;5074646;28;1003;-12
2022/12/22 13:23:35;;;;;;;;;;;;;;;26.56;25.76;100822.63;5056877;28;1088;-12
2022/12/22 13:26:06;;;;;;;;;;;;;;;26.72;25.54;100827.09;5057487;28;1016;-12
2022/12/22 13:28:31;;;;;;;;;;;;;;;27.12;25.05;100818.91;5074903;28;1020;-12
2022/12/22 13:30:58;;;;;;;;;;;;;;;27.40;24.52;100830.97;5056962;28;989;-12
2022/12/22 13:33:24;;;;;;;;;;;;;;;26.64;25.51;100824.44;5074667;28;1144;-12
2022/12/22 13:35:49;;;;;;;;;;;;;;;26.61;25.44;100819.41;5057776;28;1068;-12
2022/12/22 13:38:44;;;;;;;;;;;;;;;26.44;25.88;100827.59;5060577;28;2051;-12
2022/12/22 13:41:18;;;;;;;;;;;;;;;26.82;25.20;100821.47;5058257;28;1310;-12
2022/12/22 13:43:45;;;;;;;;;;;;;;;26.97;25.18;100826.94;5069233;28;2457;-12
2022/12/22 13:46:11;;;;;;;;;;;;;;;26.69;25.32;100822.06;5060237;28;1035;-12
2022/12/22 13:48:40;;;;;;;;;;;;;;;26.77;25.48;100818.47;5078255;28;1058;-12
2022/12/22 13:51:07;;;;;;;;;;;;;;;25.30;27.61;100826.66;5078338;28;1143;-12
2022/12/22 13:53:36;;;;;;;;;;;;;;;26.93;25.81;100822.91;5078105;28;1055;-12
2022/12/22 13:56:01;;;;;;;;;;;;;;;27.35;25.01;100823.44;5060324;28;1052;-12
2022/12/22 13:58:28;;;;;;;;;;;;;;;26.73;25.34;100809.03;5060498;28;1965;-12
2022/12/22 14:01:00;;;;;;;;;;;;;;;26.96;25.43;100810.91;5060062;28;1091;-12
2022/12/22 14:03:25;;;;;;;;;;;;;;;27.01;25.15;100813.88;5078455;28;1174;-12
2022/12/22 14:05:51;;;;;;;;;;;;;;;26.80;25.34;100809.16;5071423;28;1190;-12
2022/12/22 14:08:16;;;;;;;;;;;;;;;26.84;25.71;100805.91;5070664;28;1423;-12
2022/12/22 14:10:42;;;;;;;;;;;;;;;27.40;24.92;100812.06;5059851;28;1364;-12
2022/12/22 14:13:11;;;;;;;;;;;;;;;26.88;25.58;100814.50;5060151;28;1868;-12
2022/12/22 14:15:36;;;;;;;;;;;;;;;26.81;25.40;100811.66;5077912;28;1240;-12
2022/12/22 14:18:01;;;;;;;;;;;;;;;26.92;25.83;100805.03;5077316;28;1909;-12
2022/12/22 14:20:28;;;;;;;;;;;;;;;26.84;25.48;100807.78;5077539;28;1019;-12
2022/12/22 14:22:54;;;;;;;;;;;;;;;26.87;25.38;100808.28;5077504;28;1567;-12
2022/12/22 14:25:24;;;;;;;;;;;;;;;27.25;25.25;100807.50;5059636;28;1087;-12
2022/12/22 14:27:51;;;;;;;;;;;;;;;25.84;27.37;100808.25;5078047;28;1061;-12
2022/12/22 14:30:20;;;;;;;;;;;;;;;26.67;25.85;100807.91;5083942;28;1321;-12
2022/12/22 14:32:49;;;;;;;;;;;;;;;26.88;25.38;100809.09;5059818;28;1064;-12
2022/12/22 14:35:15;;;;;;;;;;;;;;;27.13;25.78;100804.38;5059785;28;1019;-12
2022/12/22 14:37:41;;;;;;;;;;;;;;;27.30;25.08;100812.34;5077104;28;1897;-12
2022/12/22 14:40:13;;;;;;;;;;;;;;;27.20;25.51;100812.59;5077863;28;1011;-12
2022/12/22 14:42:41;;;;;;;;;;;;;;;27.07;25.54;100815.06;5077374;28;1084;-12
2022/12/22 14:45:13;;;;;;;;;;;;;;;27.71;24.93;100815.69;5077729;28;2541;-12
2022/12/22 14:47:38;;;;;;;;;;;;;;;27.24;25.23;100797.69;5077005;28;992;-12
2022/12/22 14:50:13;;;;;;;;;;;;;;;26.97;25.72;100804.47;5077178;28;1147;-12
2022/12/22 14:52:45;;;;;;;;;;;;;;;27.67;24.84;100807.09;5076951;28;1083;-12
2022/12/22 14:55:40;;;;;;;;;;;;;;;27.60;24.81;100803.44;5076694;28;893;-12
2022/12/22 14:58:10;;;;;;;;;;;;;;;27.37;25.06;100796.25;5045546;28;1898;-12
2022/12/22 15:00:39;;;;;;;;;;;;;;;27.52;24.95;100804.38;5059671;28;1103;-12
2022/12/22 15:03:23;;;;;;;;;;;;;;;27.50;24.89;100803.69;5058360;28;2316;-12
2022/12/22 15:05:48;;;;;;;;;;;;;;;27.25;25.25;100804.78;5058534;28;1010;-12
2022/12/22 15:08:33;;;;;;;;;;;;;;;26.82;26.21;100807.97;5076700;28;1084;-12
2022/12/22 15:10:58;;;;;;;;;;;;;;;27.49;25.12;100810.13;5076488;28;1404;-12
2022/12/22 15:13:24;;;;;;;;;;;;;;;27.39;25.31;100813.09;5074210;28;2243;-12
2022/12/22 15:15:50;;;;;;;;;;;;;;;26.31;26.59;100805.72;5047922;28;1016;-12
2022/12/22 15:18:15;;;;;;;;;;;;;;;27.19;25.58;100801.97;5058274;28;1917;-12
2022/12/22 15:20:40;;;;;;;;;;;;;;;27.63;24.80;100808.47;5076718;28;1206;-12
2022/12/22 15:23:12;;;;;;;;;;;;;;;27.32;25.30;100807.59;5075958;28;1170;-12
2022/12/22 15:25:38;;;;;;;;;;;;;;;27.05;25.48;100814.41;5077099;28;1099;-12
2022/12/22 15:28:03;;;;;;;;;;;;;;;26.12;27.16;100808.66;5076162;28;1086;-12
2022/12/22 15:30:28;;;;;;;;;;;;;;;27.48;25.19;100808.44;5076073;28;1210;-12
2022/12/22 15:32:54;;;;;;;;;;;;;;;27.31;25.44;100814.00;5075851;28;1030;-12
2022/12/22 15:35:20;;;;;;;;;;;;;;;26.60;26.14;100810.47;5076476;28;1090;-12
2022/12/22 15:37:46;;;;;;;;;;;;;;;27.59;25.36;100820.69;5076249;28;1901;-12
2022/12/22 15:40:13;;;;;;;;;;;;;;;27.47;24.57;100820.28;5076099;28;1060;-12
2022/12/22 15:42:38;;;;;;;;;;;;;;;27.29;25.30;100815.22;5076046;28;1063;-12
2022/12/22 15:45:04;;;;;;;;;;;;;;;26.69;26.41;100816.66;5071330;28;2895;-12
2022/12/22 15:47:29;;;;;;;;;;;;;;;27.74;24.79;100809.91;5075939;28;1039;-12
2022/12/22 15:49:54;;;;;;;;;;;;;;;27.54;24.32;100810.44;5076117;28;1193;-12
2022/12/22 15:52:19;;;;;;;;;;;;;;;27.34;25.03;100812.81;5076238;28;1139;-12
2022/12/22 15:54:45;;;;;;;;;;;;;;;27.04;25.56;100813.59;5076001;28;1139;-12
2022/12/22 15:57:11;;;;;;;;;;;;;;;27.69;24.83;100817.75;5076392;28;1905;-12
2022/12/22 15:59:36;;;;;;;;;;;;;;;28.05;24.19;100819.69;5075476;28;1023;-12
2022/12/22 16:02:01;;;;;;;;;;;;;;;27.47;24.72;100806.78;5075848;28;1074;-12
2022/12/22 16:04:27;;;;;;;;;;;;;;;27.21;24.53;100822.34;5075107;28;1056;-12
2022/12/22 16:06:52;;;;;;;;;;;;;;;26.23;26.69;100815.50;5075175;28;1104;-12
2022/12/22 16:09:22;;;;;;;;;;;;;;;27.45;25.22;100812.38;5057633;28;1020;-12
2022/12/22 16:11:47;;;;;;;;;;;;;;;27.29;24.66;100813.38;5075712;28;1084;-12
2022/12/22 16:14:12;;;;;;;;;;;;;;;27.45;24.73;100817.78;5074390;28;2636;-12
2022/12/22 16:16:40;;;;;;;;;;;;;;;27.16;25.49;100815.84;5075543;28;1976;-12
2022/12/22 16:19:13;;;;;;;;;;;;;;;27.90;24.38;100827.81;5075469;28;1075;-12
2022/12/22 16:21:39;;;;;;;;;;;;;;;27.41;24.95;100824.53;5075487;28;1089;-12
2022/12/22 16:24:04;;;;;;;;;;;;;;;27.19;25.01;100827.13;5075693;28;1103;-12
2022/12/22 16:26:29;;;;;;;;;;;;;;;27.32;25.52;100828.34;5075579;28;1175;-12
2022/12/22 16:28:57;;;;;;;;;;;;;;;27.89;24.83;100836.09;5075538;28;987;-12
2022/12/22 16:31:23;;;;;;;;;;;;;;;27.42;25.46;100828.09;5075355;28;897;-12
2022/12/22 16:33:48;;;;;;;;;;;;;;;26.81;25.85;100824.34;5057615;28;1008;-12